Time;durP1;ratioP1;P1;durP2;ratioP2;P2;SDS_P1;SDS_P2;PMS_P1;PMS_P2;Temp;Humidity;BMP_temperature;BMP_pressure;BME280_temperature;BME280_humidity;BME280_pressure;Samples;Min_cycle;Max_cycle;Signal;HPM_P1;HPM_P2
2022/10/04 00:02:16;;;;;;;3.80;1.60;;;9.00;99.90;;;;;;5049785;28;20463;-50
2022/10/04 00:04:48;;;;;;;1.30;1.20;;;8.90;99.90;;;;;;5049235;28;20446;-50
2022/10/04 00:07:22;;;;;;;2.90;1.73;;;8.90;99.90;;;;;;5049703;28;20444;-49
2022/10/04 00:09:52;;;;;;;2.63;2.43;;;8.90;99.90;;;;;;5049781;28;20460;-51
2022/10/04 00:12:22;;;;;;;2.23;1.20;;;9.00;99.90;;;;;;5049458;28;20461;-49
2022/10/04 00:14:51;;;;;;;5.00;1.73;;;8.70;99.90;;;;;;5048839;28;20564;-52
2022/10/04 00:17:23;;;;;;;1.93;1.50;;;8.80;99.90;;;;;;5049045;28;20477;-49
2022/10/04 00:19:52;;;;;;;1.43;1.33;;;8.90;99.90;;;;;;5049304;28;20456;-49
2022/10/04 00:22:21;;;;;;;1.50;1.40;;;8.80;99.90;;;;;;5048974;28;20561;-49
2022/10/04 00:25:33;;;;;;;1.50;1.20;;;8.90;99.90;;;;;;5048773;28;20448;-50
2022/10/04 00:28:28;;;;;;;1.20;1.10;;;9.10;99.90;;;;;;5048963;28;20493;-52
2022/10/04 00:31:17;;;;;;;1.50;1.10;;;9.20;99.90;;;;;;5049223;28;20532;-49
2022/10/04 00:33:45;;;;;;;1.30;0.97;;;9.30;99.90;;;;;;5049026;28;20437;-50
2022/10/04 00:36:51;;;;;;;1.97;1.47;;;9.10;99.90;;;;;;5049041;28;20444;-49
2022/10/04 00:39:42;;;;;;;1.70;1.10;;;9.10;99.90;;;;;;5049305;28;20437;-51
2022/10/04 00:42:36;;;;;;;1.63;1.13;;;8.20;99.90;;;;;;5048826;28;20834;-50
2022/10/04 00:45:11;;;;;;;3.80;1.20;;;8.40;99.90;;;;;;5049223;28;20509;-51
2022/10/04 00:48:00;;;;;;;1.93;1.10;;;8.30;99.90;;;;;;5047985;28;20441;-50
2022/10/04 00:50:34;;;;;;;1.57;1.13;;;8.40;99.90;;;;;;5048673;28;20974;-50
2022/10/04 00:53:04;;;;;;;1.40;1.13;;;8.60;99.90;;;;;;5048166;28;20473;-50
2022/10/04 00:55:38;;;;;;;2.00;1.10;;;8.60;99.90;;;;;;5048517;28;20446;-50
2022/10/04 00:58:14;;;;;;;1.43;0.93;;;8.70;99.90;;;;;;5048842;28;20469;-49
2022/10/04 01:00:43;;;;;;;1.90;1.40;;;8.70;99.90;;;;;;5048613;28;20445;-50
2022/10/04 01:03:14;;;;;;;1.73;1.00;;;8.70;99.90;;;;;;5048198;28;20619;-49
2022/10/04 01:05:44;;;;;;;1.40;1.00;;;8.80;99.90;;;;;;5048622;28;20800;-49
2022/10/04 01:08:15;;;;;;;2.30;1.40;;;8.40;99.90;;;;;;5048567;28;20438;-49
2022/10/04 01:10:47;;;;;;;3.20;1.20;;;8.20;99.90;;;;;;5048603;28;20538;-50
2022/10/04 01:13:19;;;;;;;4.73;1.83;;;8.60;99.90;;;;;;5048312;28;20534;-50
2022/10/04 01:15:53;;;;;;;3.37;1.10;;;8.50;99.90;;;;;;5049187;28;20453;-49
2022/10/04 01:18:31;;;;;;;1.60;1.43;;;8.60;99.90;;;;;;5048367;28;20488;-51
2022/10/04 01:21:00;;;;;;;1.60;1.10;;;8.70;99.90;;;;;;5048668;28;20540;-50
2022/10/04 01:23:40;;;;;;;1.43;1.30;;;8.80;99.90;;;;;;5048029;28;20457;-49
2022/10/04 01:26:40;;;;;;;1.93;1.20;;;8.70;99.90;;;;;;5048291;28;20438;-49
2022/10/04 01:29:11;;;;;;;1.93;1.00;;;8.60;99.90;;;;;;5048657;28;20470;-51
2022/10/04 01:31:40;;;;;;;1.57;1.20;;;8.60;99.90;;;;;;5048160;28;20467;-49
2022/10/04 01:34:08;;;;;;;1.40;0.90;;;8.70;99.90;;;;;;5047967;28;20536;-50
2022/10/04 01:36:36;;;;;;;2.00;1.37;;;8.80;99.90;;;;;;5048279;28;20447;-50
2022/10/04 01:39:05;;;;;;;2.50;1.10;;;8.80;99.90;;;;;;5048043;28;20489;-50
2022/10/04 01:41:41;;;;;;;1.30;1.00;;;8.70;99.90;;;;;;5048060;28;20444;-49
2022/10/04 01:44:13;;;;;;;2.03;1.00;;;8.50;99.90;;;;;;5047674;28;20813;-52
2022/10/04 01:46:40;;;;;;;3.53;1.80;;;7.80;99.90;;;;;;5047828;28;20442;-50
2022/10/04 01:49:11;;;;;;;2.67;1.10;;;7.60;99.90;;;;;;5048262;28;20467;-52
2022/10/04 01:54:17;;;;;;;2.70;1.57;;;8.40;99.90;;;;;;5064322;23;20556;-53
2022/10/04 01:56:49;;;;;;;2.43;1.17;;;8.50;99.90;;;;;;5008518;28;20443;-53
2022/10/04 01:59:23;;;;;;;2.73;1.20;;;8.70;99.90;;;;;;5009071;28;21000;-53
2022/10/04 02:01:55;;;;;;;6.67;1.07;;;8.70;99.90;;;;;;5011662;28;20477;-54
2022/10/04 02:04:27;;;;;;;1.37;1.20;;;8.60;99.90;;;;;;5011446;28;20539;-53
2022/10/04 02:06:57;;;;;;;1.77;1.13;;;8.60;99.90;;;;;;5011997;28;20451;-54
2022/10/04 02:09:28;;;;;;;2.13;1.03;;;8.70;99.90;;;;;;5011681;28;20453;-53
2022/10/04 02:11:57;;;;;;;1.40;1.13;;;8.60;99.90;;;;;;5011559;28;20840;-54
2022/10/04 02:14:26;;;;;;;1.50;1.00;;;8.50;99.90;;;;;;5011355;28;20458;-53
2022/10/04 02:16:53;;;;;;;1.40;1.13;;;8.50;99.90;;;;;;5011158;28;20527;-53
2022/10/04 02:19:23;;;;;;;1.70;1.20;;;8.40;99.90;;;;;;5011753;28;20508;-54
2022/10/04 02:21:51;;;;;;;1.30;1.00;;;8.10;99.90;;;;;;5011494;28;20525;-53
2022/10/04 02:24:19;;;;;;;2.57;1.43;;;8.00;99.90;;;;;;5011257;28;20447;-54
2022/10/04 02:26:51;;;;;;;1.67;1.00;;;8.30;99.90;;;;;;5011068;28;20435;-54
2022/10/04 02:29:19;;;;;;;2.00;1.40;;;8.40;99.90;;;;;;5012016;28;20534;-54
2022/10/04 02:34:32;;;;;;;1.57;1.10;;;8.40;99.90;;;;;;5011350;28;20423;-54
2022/10/04 02:37:02;;;;;;;1.23;0.97;;;8.20;99.90;;;;;;5011421;28;20442;-53
2022/10/04 02:39:37;;;;;;;4.33;1.47;;;8.20;99.90;;;;;;5011333;28;20511;-54
2022/10/04 02:42:13;;;;;;;3.57;1.43;;;8.40;99.90;;;;;;5011115;28;20558;-53
2022/10/04 02:44:44;;;;;;;4.83;0.90;;;8.40;99.90;;;;;;5010843;28;20458;-54
2022/10/04 02:47:16;;;;;;;1.87;1.37;;;8.30;99.90;;;;;;5011186;28;21055;-54
2022/10/04 02:49:46;;;;;;;1.60;1.13;;;8.30;99.90;;;;;;5011260;28;20795;-53
2022/10/04 02:52:18;;;;;;;1.63;1.33;;;8.10;99.90;;;;;;5010963;28;20491;-54
2022/10/04 02:54:49;;;;;;;3.77;1.10;;;8.30;99.90;;;;;;5010765;28;20470;-54
2022/10/04 02:57:19;;;;;;;1.70;1.60;;;8.20;99.90;;;;;;5011156;28;20439;-54
2022/10/04 02:59:46;;;;;;;1.50;1.30;;;8.30;99.90;;;;;;5011154;28;20491;-53
2022/10/04 03:02:25;;;;;;;1.73;1.10;;;7.90;99.90;;;;;;5010580;28;20847;-53
2022/10/04 03:04:55;;;;;;;1.20;1.10;;;8.20;99.90;;;;;;5010512;28;20450;-54
2022/10/04 03:07:23;;;;;;;1.53;1.33;;;8.20;99.90;;;;;;5010895;28;20446;-53
2022/10/04 03:09:50;;;;;;;1.23;1.00;;;8.20;99.90;;;;;;5010597;28;20816;-54
2022/10/04 03:12:21;;;;;;;2.27;1.50;;;8.30;99.90;;;;;;5010340;28;20470;-54
2022/10/04 03:14:48;;;;;;;1.13;0.80;;;8.10;99.90;;;;;;5010807;28;20545;-54
2022/10/04 03:17:16;;;;;;;2.70;0.97;;;8.30;99.90;;;;;;5010312;28;21032;-53
2022/10/04 03:19:47;;;;;;;1.60;1.10;;;8.20;99.90;;;;;;5010549;28;20443;-53
2022/10/04 03:22:14;;;;;;;2.30;1.27;;;8.10;99.90;;;;;;5010580;28;20474;-53
2022/10/04 03:24:46;;;;;;;1.40;1.10;;;8.20;99.90;;;;;;5010191;28;20451;-53
2022/10/04 03:27:18;;;;;;;6.23;1.17;;;8.20;99.90;;;;;;5010239;28;20454;-54
2022/10/04 03:29:49;;;;;;;1.50;1.10;;;8.00;99.90;;;;;;5010529;28;20436;-54
2022/10/04 03:32:18;;;;;;;1.93;1.37;;;8.10;99.90;;;;;;5010428;28;20475;-53
2022/10/04 03:34:53;;;;;;;1.80;1.23;;;8.10;99.90;;;;;;5010270;28;21028;-53
2022/10/04 03:37:20;;;;;;;1.77;1.10;;;8.00;99.90;;;;;;5010134;28;20948;-54
2022/10/04 03:39:49;;;;;;;1.43;0.90;;;7.70;99.90;;;;;;5010252;28;20450;-54
2022/10/04 03:42:19;;;;;;;1.50;1.20;;;7.50;99.90;;;;;;5010095;28;20477;-54
2022/10/04 03:44:50;;;;;;;1.10;0.80;;;7.80;99.90;;;;;;5010257;28;20888;-53
2022/10/04 03:47:21;;;;;;;1.50;1.07;;;8.00;99.90;;;;;;5010472;28;20542;-53
2022/10/04 03:49:51;;;;;;;4.13;1.80;;;8.10;99.90;;;;;;5010233;28;20534;-54
2022/10/04 03:52:22;;;;;;;1.40;1.30;;;8.10;99.90;;;;;;5010100;28;20487;-54
2022/10/04 03:54:51;;;;;;;1.57;1.33;;;8.10;99.90;;;;;;5009780;28;20445;-53
2022/10/04 03:57:18;;;;;;;1.77;1.40;;;8.10;99.90;;;;;;5009907;28;20443;-53
2022/10/04 03:59:47;;;;;;;2.03;1.17;;;8.00;99.90;;;;;;5010195;28;20490;-53
2022/10/04 04:02:20;;;;;;;2.80;1.50;;;8.00;99.90;;;;;;5009726;28;20977;-53
2022/10/04 04:04:53;;;;;;;2.50;1.30;;;7.90;99.90;;;;;;5009801;28;20550;-54
2022/10/04 04:07:25;;;;;;;2.47;2.00;;;8.00;99.90;;;;;;5010273;28;20512;-54
2022/10/04 04:09:56;;;;;;;1.90;1.57;;;7.90;99.90;;;;;;5009922;28;20466;-54
2022/10/04 04:12:33;;;;;;;2.53;1.80;;;8.00;99.90;;;;;;5009882;28;20464;-53
2022/10/04 04:15:04;;;;;;;9.30;7.60;;;7.70;99.90;;;;;;5009655;28;20526;-53
2022/10/04 04:17:37;;;;;;;16.93;13.10;;;7.60;99.90;;;;;;5009421;28;20447;-53
2022/10/04 04:20:12;;;;;;;10.27;6.90;;;7.70;99.90;;;;;;5009721;28;20446;-54
2022/10/04 04:22:43;;;;;;;2.40;1.70;;;7.60;99.90;;;;;;5009843;28;20455;-54
2022/10/04 04:25:15;;;;;;;2.70;1.43;;;7.60;99.90;;;;;;5009461;28;20442;-53
2022/10/04 04:27:44;;;;;;;1.50;1.17;;;7.50;99.90;;;;;;5009191;28;20474;-53
2022/10/04 04:30:17;;;;;;;2.13;0.90;;;7.80;99.90;;;;;;5009660;28;20447;-53
2022/10/04 04:32:49;;;;;;;4.00;3.03;;;8.00;99.90;;;;;;5009744;28;20466;-53
2022/10/04 04:35:24;;;;;;;2.43;2.20;;;7.90;99.90;;;;;;5009598;28;20450;-53
2022/10/04 04:38:06;;;;;;;4.87;1.77;;;7.90;99.90;;;;;;5009470;28;20558;-53
2022/10/04 04:40:33;;;;;;;2.80;2.20;;;7.70;99.90;;;;;;5009799;28;20444;-53
2022/10/04 04:43:02;;;;;;;2.30;1.73;;;7.60;99.90;;;;;;5009288;28;20474;-53
2022/10/04 04:45:33;;;;;;;3.13;2.60;;;7.40;99.90;;;;;;5009501;28;20535;-54
2022/10/04 04:48:02;;;;;;;5.27;2.87;;;7.40;99.90;;;;;;5009604;28;20443;-53
2022/10/04 04:50:32;;;;;;;3.57;2.27;;;7.70;99.90;;;;;;5009200;28;20451;-53
2022/10/04 04:53:05;;;;;;;3.03;1.60;;;7.90;99.90;;;;;;5008946;28;21046;-53
2022/10/04 04:55:36;;;;;;;2.67;1.90;;;7.90;99.90;;;;;;5009317;28;20448;-53
2022/10/04 04:58:05;;;;;;;3.03;1.77;;;7.60;99.90;;;;;;5009166;28;20451;-53
2022/10/04 05:00:38;;;;;;;4.00;1.60;;;7.60;99.90;;;;;;5009164;28;20452;-54
2022/10/04 05:03:07;;;;;;;2.23;1.33;;;7.50;99.90;;;;;;5008851;28;20517;-54
2022/10/04 05:05:35;;;;;;;2.20;1.13;;;7.40;99.90;;;;;;5009219;28;20445;-55
2022/10/04 05:08:14;;;;;;;2.97;1.30;;;7.30;99.90;;;;;;5009200;28;20482;-54
2022/10/04 05:10:45;;;;;;;3.50;1.20;;;7.40;99.90;;;;;;5008933;28;20445;-54
2022/10/04 05:13:12;;;;;;;3.40;1.83;;;7.60;99.90;;;;;;5008779;28;20473;-55
2022/10/04 05:15:42;;;;;;;3.10;2.40;;;7.50;99.90;;;;;;5008875;28;20489;-55
2022/10/04 05:18:28;;;;;;;2.67;1.57;;;7.30;99.90;;;;;;5008731;28;20450;-54
2022/10/04 05:20:57;;;;;;;1.93;1.47;;;7.30;99.90;;;;;;5008786;28;20942;-54
2022/10/04 05:23:23;;;;;;;1.57;1.40;;;7.30;99.90;;;;;;5008413;28;20466;-54
2022/10/04 05:25:51;;;;;;;1.40;0.93;;;7.30;99.90;;;;;;5008416;28;20461;-54
2022/10/04 05:28:18;;;;;;;1.57;1.00;;;7.20;99.90;;;;;;5008669;28;20819;-55
2022/10/04 05:31:07;;;;;;;3.43;1.00;;;7.30;99.90;;;;;;5008706;28;20443;-55
2022/10/04 05:33:39;;;;;;;1.57;1.30;;;7.20;99.90;;;;;;5008082;28;20503;-54
2022/10/04 05:36:37;;;;;;;4.03;1.50;;;7.10;99.90;;;;;;5008508;28;20454;-54
2022/10/04 05:39:09;;;;;;;3.20;0.73;;;7.20;99.90;;;;;;5008580;28;20475;-54
2022/10/04 05:41:40;;;;;;;2.20;1.07;;;7.40;99.90;;;;;;5008580;28;20478;-54
2022/10/04 05:44:22;;;;;;;1.60;1.30;;;7.30;99.90;;;;;;5008068;28;20850;-54
2022/10/04 05:46:52;;;;;;;1.43;1.00;;;7.30;99.90;;;;;;5008273;28;20484;-54
2022/10/04 05:49:21;;;;;;;1.93;1.00;;;7.50;99.90;;;;;;5008502;28;21002;-54
2022/10/04 05:51:50;;;;;;;2.60;1.27;;;7.50;99.90;;;;;;5008270;28;20454;-54
2022/10/04 05:54:22;;;;;;;1.90;1.20;;;7.50;99.90;;;;;;5007934;28;20560;-54
2022/10/04 05:57:16;;;;;;;2.83;1.40;;;7.40;99.90;;;;;;5008169;28;20450;-54
2022/10/04 05:59:58;;;;;;;5.00;1.70;;;7.30;99.90;;;;;;5008733;28;20486;-54
2022/10/04 06:02:39;;;;;;;1.50;1.20;;;7.30;99.90;;;;;;5008380;28;20466;-54
2022/10/04 06:05:14;;;;;;;1.50;1.40;;;7.40;99.90;;;;;;5008175;28;20441;-54
2022/10/04 06:07:49;;;;;;;3.80;1.40;;;7.60;99.90;;;;;;5008284;28;20454;-55
2022/10/04 06:11:00;;;;;;;2.20;1.07;;;7.60;99.90;;;;;;5008163;28;20445;-54
2022/10/04 06:13:54;;;;;;;7.97;5.10;;;7.80;99.90;;;;;;5007758;28;20467;-55
2022/10/04 06:16:30;;;;;;;8.93;8.03;;;7.80;99.90;;;;;;5008623;28;20449;-54
2022/10/04 06:19:32;;;;;;;9.83;8.80;;;7.80;99.90;;;;;;5008915;28;20483;-54
2022/10/04 06:22:15;;;;;;;5.77;5.17;;;7.50;99.90;;;;;;5007988;28;20859;-54
2022/10/04 06:24:44;;;;;;;6.13;2.67;;;6.50;99.90;;;;;;5007769;28;20453;-54
2022/10/04 06:27:17;;;;;;;3.53;2.07;;;6.70;99.90;;;;;;5007728;28;20451;-54
2022/10/04 06:29:51;;;;;;;2.80;1.73;;;7.10;99.90;;;;;;5008002;28;20526;-54
2022/10/04 06:32:43;;;;;;;2.20;1.80;;;7.40;99.90;;;;;;5007988;28;20476;-55
2022/10/04 06:35:47;;;;;;;2.87;2.00;;;7.50;99.90;;;;;;5007572;28;20534;-54
2022/10/04 06:38:45;;;;;;;1.90;1.60;;;7.80;99.90;;;;;;5007733;28;20439;-54
2022/10/04 06:41:42;;;;;;;2.10;1.40;;;7.90;99.90;;;;;;5008353;28;20471;-54
2022/10/04 06:44:51;;;;;;;2.10;1.50;;;7.90;99.90;;;;;;5011852;28;20478;-54
2022/10/04 06:47:37;;;;;;;1.80;1.20;;;7.70;99.90;;;;;;5024447;28;20451;-55
2022/10/04 06:50:17;;;;;;;2.20;2.00;;;7.90;99.90;;;;;;5011602;28;20441;-55
2022/10/04 06:52:58;;;;;;;6.13;2.20;;;7.80;99.90;;;;;;5010885;28;20469;-55
2022/10/04 06:55:45;;;;;;;4.27;2.40;;;7.50;99.90;;;;;;5011048;28;20806;-54
2022/10/04 06:59:06;;;;;;;1.93;1.67;;;7.60;99.90;;;;;;5011046;28;20457;-54
2022/10/04 07:01:34;;;;;;;1.90;1.73;;;7.80;99.90;;;;;;5011029;28;20555;-54
2022/10/04 07:04:10;;;;;;;2.63;1.90;;;8.00;99.90;;;;;;5010461;28;20489;-55
2022/10/04 07:06:41;;;;;;;3.03;2.20;;;8.00;99.90;;;;;;5010932;28;20449;-54
2022/10/04 07:09:18;;;;;;;3.00;2.40;;;8.00;99.90;;;;;;5010980;28;20534;-54
2022/10/04 07:11:51;;;;;;;3.77;2.57;;;8.10;99.90;;;;;;5010679;28;20539;-54
2022/10/04 07:14:21;;;;;;;3.77;2.63;;;8.10;99.90;;;;;;5010833;28;20450;-54
2022/10/04 07:16:51;;;;;;;4.47;3.13;;;8.10;99.90;;;;;;5010730;28;20454;-54
2022/10/04 07:19:30;;;;;;;2.90;2.70;;;8.20;99.90;;;;;;5010715;28;20486;-54
2022/10/04 07:22:11;;;;;;;2.87;2.10;;;8.20;99.90;;;;;;5010350;28;20443;-54
2022/10/04 07:24:51;;;;;;;3.90;3.00;;;8.40;99.90;;;;;;5010062;28;20524;-54
2022/10/04 07:27:25;;;;;;;4.80;2.53;;;8.30;99.90;;;;;;5010359;28;20455;-54
2022/10/04 07:29:53;;;;;;;2.80;1.90;;;8.00;99.90;;;;;;5010441;28;21036;-54
2022/10/04 07:32:23;;;;;;;3.10;2.80;;;8.30;99.90;;;;;;5010424;28;20475;-54
2022/10/04 07:34:54;;;;;;;7.30;3.60;;;8.50;99.90;;;;;;5010258;28;20938;-54
2022/10/04 07:37:22;;;;;;;3.70;2.87;;;8.40;99.90;;;;;;5010720;28;20825;-54
2022/10/04 07:39:59;;;;;;;4.50;4.10;;;8.20;99.90;;;;;;5010235;28;20476;-54
2022/10/04 07:42:31;;;;;;;5.07;4.47;;;8.20;99.90;;;;;;5010245;28;20481;-54
2022/10/04 07:45:05;;;;;;;4.93;3.63;;;8.30;99.90;;;;;;5009998;28;20952;-54
2022/10/04 07:47:32;;;;;;;3.67;3.37;;;8.30;99.90;;;;;;5010398;28;20451;-54
2022/10/04 07:50:00;;;;;;;3.97;3.43;;;8.30;99.90;;;;;;5010201;28;20451;-54
2022/10/04 07:52:53;;;;;;;6.30;2.27;;;8.40;99.90;;;;;;5010952;28;20471;-54
2022/10/04 07:55:28;;;;;;;4.03;2.47;;;8.50;99.90;;;;;;5023150;28;20953;-54
2022/10/04 07:58:18;;;;;;;2.63;2.43;;;8.70;99.90;;;;;;5009811;28;20443;-54
2022/10/04 08:00:52;;;;;;;2.90;1.47;;;8.90;99.90;;;;;;5009881;28;20533;-54
2022/10/04 08:03:38;;;;;;;3.50;2.63;;;9.10;99.90;;;;;;5009445;28;20489;-54
2022/10/04 08:06:13;;;;;;;5.30;4.73;;;9.10;99.90;;;;;;5009896;28;20862;-54
2022/10/04 08:09:15;;;;;;;3.17;2.67;;;9.20;99.90;;;;;;5010052;28;20443;-54
2022/10/04 08:11:51;;;;;;;1.93;1.70;;;9.40;99.90;;;;;;5012530;28;20976;-54
2022/10/04 08:14:34;;;;;;;3.83;1.20;;;9.40;99.90;;;;;;5009453;28;21020;-54
2022/10/04 08:17:20;;;;;;;3.53;1.53;;;9.50;99.90;;;;;;5009427;28;20531;-54
2022/10/04 08:19:59;;;;;;;1.40;1.20;;;9.60;99.90;;;;;;5009840;28;20475;-54
2022/10/04 08:22:40;;;;;;;1.90;1.57;;;9.60;99.90;;;;;;5009808;28;21003;-54
2022/10/04 08:25:18;;;;;;;3.03;2.20;;;9.60;99.90;;;;;;5009370;28;20451;-54
2022/10/04 08:31:00;;;;;;;2.00;1.80;;;9.60;99.90;;;;;;5009476;28;20941;-54
2022/10/04 08:33:44;;;;;;;3.93;2.30;;;9.50;99.90;;;;;;5009560;28;20467;-54
2022/10/04 08:36:25;;;;;;;2.10;1.67;;;9.60;99.90;;;;;;5009393;28;20805;-54
2022/10/04 08:38:56;;;;;;;3.43;2.00;;;9.60;99.90;;;;;;5009707;28;20444;-54
2022/10/04 08:42:00;;;;;;;3.67;1.40;;;9.70;99.90;;;;;;5009539;28;20526;-53
2022/10/04 08:45:00;;;;;;;5.20;1.40;;;9.60;99.90;;;;;;5008926;28;20821;-54
2022/10/04 08:48:21;;;;;;;1.60;1.27;;;9.70;99.90;;;;;;5009321;28;20444;-54
2022/10/04 08:51:33;;;;;;;2.73;1.33;;;9.90;99.90;;;;;;5069207;28;20433;-54
2022/10/04 08:54:21;;;;;;;1.80;1.53;;;10.10;99.90;;;;;;5009324;28;20471;-54
2022/10/04 08:57:03;;;;;;;1.90;1.30;;;10.20;99.90;;;;;;5009240;28;20439;-53
2022/10/04 08:59:52;;;;;;;1.70;1.13;;;10.20;99.90;;;;;;5008893;28;21035;-54
2022/10/04 09:02:50;;;;;;;2.00;1.50;;;10.20;99.90;;;;;;5009304;28;20475;-54
2022/10/04 09:05:33;;;;;;;1.53;1.20;;;10.30;99.90;;;;;;5009277;28;20440;-53
2022/10/04 09:08:31;;;;;;;1.70;1.10;;;10.40;99.90;;;;;;5009019;28;20449;-51
2022/10/04 09:11:22;;;;;;;2.67;1.20;;;10.50;99.90;;;;;;5008687;28;20432;-51
2022/10/04 09:14:07;;;;;;;1.50;1.20;;;10.60;99.90;;;;;;5008553;28;20460;-50
2022/10/04 09:16:45;;;;;;;2.60;1.00;;;10.70;99.90;;;;;;5008619;28;20444;-51
2022/10/04 09:19:22;;;;;;;2.13;1.40;;;10.80;99.90;;;;;;5008568;28;20447;-51
2022/10/04 09:22:18;;;;;;;1.80;1.40;;;10.80;99.90;;;;;;5008515;28;20878;-51
2022/10/04 09:25:22;;;;;;;1.97;1.17;;;10.90;99.90;;;;;;5010405;28;20452;-51
2022/10/04 09:28:42;;;;;;;1.50;1.10;;;10.90;99.90;;;;;;5017458;28;20466;-50
2022/10/04 09:31:42;;;;;;;2.60;1.00;;;10.90;99.90;;;;;;5066949;28;20485;-50
2022/10/04 09:34:35;;;;;;;1.77;0.90;;;10.90;99.90;;;;;;4999986;28;20466;-50
2022/10/04 09:37:33;;;;;;;1.73;0.90;;;10.90;99.90;;;;;;5008586;28;21032;-51
2022/10/04 09:40:34;;;;;;;1.50;0.90;;;11.10;99.90;;;;;;5013756;28;20571;-50
2022/10/04 09:43:17;;;;;;;1.87;1.17;;;11.20;99.90;;;;;;5008195;28;21005;-51
2022/10/04 09:46:06;;;;;;;1.60;1.10;;;11.30;99.90;;;;;;5008466;28;20452;-50
2022/10/04 09:48:39;;;;;;;2.23;1.00;;;11.30;99.90;;;;;;5008407;28;20540;-50
2022/10/04 09:51:39;;;;;;;1.20;0.90;;;11.30;99.90;;;;;;5008446;28;20934;-50
2022/10/04 09:54:48;;;;;;;1.20;0.80;;;11.40;99.90;;;;;;5007876;28;20499;-50
2022/10/04 09:57:30;;;;;;;2.07;0.97;;;11.50;99.90;;;;;;5007964;28;20444;-51
2022/10/04 10:00:17;;;;;;;1.83;1.00;;;11.60;99.90;;;;;;5008434;28;20499;-51
2022/10/04 10:03:22;;;;;;;1.40;0.83;;;11.70;99.90;;;;;;5008443;28;20467;-51
2022/10/04 10:06:12;;;;;;;1.20;0.83;;;11.90;99.90;;;;;;5012739;28;20534;-50
2022/10/04 10:08:54;;;;;;;1.40;0.90;;;11.90;99.90;;;;;;5008330;28;20444;-50
2022/10/04 10:14:48;;;;;;;1.77;1.20;;;12.00;99.90;;;;;;5007916;28;20567;-50
2022/10/04 10:17:24;;;;;;;1.50;1.00;;;12.10;99.90;;;;;;5007444;28;20481;-51
2022/10/04 10:20:15;;;;;;;1.57;1.20;;;12.20;99.90;;;;;;5008277;28;20855;-50
2022/10/04 10:23:14;;;;;;;1.73;1.27;;;12.30;99.90;;;;;;5011432;28;20477;-49
2022/10/04 10:26:00;;;;;;;1.87;0.90;;;12.30;99.90;;;;;;5011078;28;20547;-50
2022/10/04 10:29:18;;;;;;;1.40;1.07;;;12.20;99.90;;;;;;5011211;28;20459;-51
2022/10/04 10:31:59;;;;;;;1.90;1.07;;;12.40;99.90;;;;;;4966949;28;20438;-50
2022/10/04 10:34:51;;;;;;;2.87;1.00;;;12.40;99.90;;;;;;4967022;28;20508;-50
2022/10/04 10:37:25;;;;;;;1.40;0.80;;;12.50;99.90;;;;;;4994753;28;20494;-49
2022/10/04 10:40:07;;;;;;;1.20;1.03;;;12.50;99.90;;;;;;5000955;28;20513;-50
2022/10/04 10:42:54;;;;;;;1.60;1.10;;;12.50;99.90;;;;;;4993782;28;20457;-50
2022/10/04 10:45:57;;;;;;;1.83;1.07;;;12.50;99.90;;;;;;4991520;28;20443;-50
2022/10/04 10:48:42;;;;;;;1.33;0.90;;;12.50;99.90;;;;;;4987130;28;20452;-49
2022/10/04 10:51:14;;;;;;;2.07;1.20;;;12.70;99.90;;;;;;4990433;28;20460;-51
2022/10/04 10:54:26;;;;;;;1.57;1.13;;;12.70;99.90;;;;;;4989489;28;20554;-50
2022/10/04 10:57:06;;;;;;;1.83;1.47;;;12.70;99.90;;;;;;4980806;28;20494;-50
2022/10/04 11:00:04;;;;;;;1.60;1.27;;;12.70;99.90;;;;;;4991393;28;20457;-50
2022/10/04 11:02:59;;;;;;;2.40;1.13;;;12.80;99.90;;;;;;4991349;28;20473;-50
2022/10/04 11:06:00;;;;;;;4.23;0.90;;;12.90;99.90;;;;;;4989714;28;20885;-50
2022/10/04 11:09:02;;;;;;;1.40;0.70;;;12.90;99.90;;;;;;4989868;28;20449;-50
2022/10/04 11:11:44;;;;;;;1.40;0.90;;;12.90;99.90;;;;;;4987601;28;20532;-50
2022/10/04 11:14:50;;;;;;;2.20;1.40;;;12.90;99.90;;;;;;4987905;28;20503;-49
2022/10/04 11:17:40;;;;;;;1.50;0.90;;;13.00;99.90;;;;;;4939595;28;20546;-49
2022/10/04 11:20:54;;;;;;;1.43;1.00;;;13.10;99.90;;;;;;4988939;28;20481;-49
2022/10/04 11:23:56;;;;;;;1.30;0.90;;;13.10;99.90;;;;;;4928536;29;20469;-50
2022/10/04 11:27:15;;;;;;;2.20;1.00;;;13.30;99.90;;;;;;4990296;28;20540;-49
2022/10/04 11:29:58;;;;;;;1.80;1.00;;;13.40;99.90;;;;;;4930642;29;20537;-50
2022/10/04 11:33:13;;;;;;;1.27;1.00;;;13.50;99.90;;;;;;4929993;29;21019;-49
2022/10/04 11:35:57;;;;;;;1.50;1.03;;;13.60;99.90;;;;;;4983695;28;20459;-49
2022/10/04 11:38:55;;;;;;;2.53;1.20;;;13.50;99.90;;;;;;4991034;28;20427;-50
2022/10/04 11:41:34;;;;;;;2.00;1.27;;;13.60;99.90;;;;;;4990540;28;20459;-49
2022/10/04 11:44:34;;;;;;;1.60;1.00;;;13.90;99.90;;;;;;4990425;28;20929;-50
2022/10/04 11:47:08;;;;;;;1.40;1.00;;;13.90;99.90;;;;;;4990991;28;20530;-49
2022/10/04 11:50:03;;;;;;;1.50;1.00;;;13.80;99.90;;;;;;4990859;28;20484;-49
2022/10/04 11:52:50;;;;;;;2.07;1.20;;;14.00;99.90;;;;;;4990357;28;20787;-50
2022/10/04 11:55:42;;;;;;;1.73;0.97;;;13.90;99.90;;;;;;4990642;28;20538;-50
2022/10/04 11:58:14;;;;;;;3.57;1.13;;;14.10;99.90;;;;;;4985840;28;20463;-48
2022/10/04 12:01:18;;;;;;;1.67;1.13;;;14.20;99.90;;;;;;4990464;28;20573;-50
2022/10/04 12:04:04;;;;;;;2.07;1.20;;;14.20;99.90;;;;;;4990156;28;20470;-50
2022/10/04 12:06:46;;;;;;;1.77;1.10;;;14.20;99.90;;;;;;4990555;28;21138;-49
2022/10/04 12:09:24;;;;;;;2.70;1.43;;;14.10;99.90;;;;;;4990319;28;20447;-50
2022/10/04 12:12:38;;;;;;;1.80;0.90;;;14.10;99.90;;;;;;4990401;28;20447;-49
2022/10/04 12:15:26;;;;;;;2.10;1.10;;;14.20;99.90;;;;;;4990159;28;20450;-50
2022/10/04 12:18:27;;;;;;;2.30;1.00;;;14.20;99.90;;;;;;4989925;28;20446;-49
2022/10/04 12:21:14;;;;;;;1.63;0.90;;;14.20;99.90;;;;;;4990052;28;20893;-50
2022/10/04 12:24:09;;;;;;;1.40;1.10;;;14.30;99.90;;;;;;4990133;28;20632;-48
2022/10/04 12:27:23;;;;;;;1.37;1.07;;;14.40;99.90;;;;;;4985255;28;20513;-49
2022/10/04 12:30:27;;;;;;;1.77;1.23;;;14.40;99.90;;;;;;4989893;28;20537;-50
2022/10/04 12:33:10;;;;;;;3.47;1.37;;;14.50;99.90;;;;;;4989712;28;20498;-48
2022/10/04 12:35:53;;;;;;;2.10;1.33;;;14.50;99.90;;;;;;4990019;28;20880;-49
2022/10/04 12:38:42;;;;;;;2.80;1.40;;;14.50;99.90;;;;;;4990020;28;20449;-49
2022/10/04 12:41:20;;;;;;;2.90;1.20;;;14.50;99.90;;;;;;4960279;28;20479;-50
2022/10/04 12:44:01;;;;;;;2.07;1.30;;;14.50;99.90;;;;;;4988502;28;20666;-49
2022/10/04 12:46:36;;;;;;;2.40;1.37;;;14.60;99.90;;;;;;4989666;28;20447;-49
2022/10/04 12:49:15;;;;;;;1.60;1.00;;;14.60;99.90;;;;;;4989831;28;21033;-50
2022/10/04 12:51:58;;;;;;;2.43;1.33;;;14.50;99.90;;;;;;4989889;28;20456;-49
2022/10/04 12:54:44;;;;;;;2.43;1.70;;;14.70;99.90;;;;;;4989815;28;20490;-50
2022/10/04 12:57:37;;;;;;;1.80;1.47;;;14.80;99.90;;;;;;4990107;28;20531;-50
2022/10/04 13:00:16;;;;;;;1.80;1.50;;;14.80;99.90;;;;;;4989513;28;20974;-50
2022/10/04 13:02:57;;;;;;;1.73;1.20;;;15.10;99.90;;;;;;4989610;28;20464;-48
2022/10/04 13:05:29;;;;;;;1.67;1.20;;;14.80;99.90;;;;;;4989779;28;20451;-49
2022/10/04 13:08:17;;;;;;;2.27;1.47;;;14.70;99.90;;;;;;4989845;28;20443;-50
2022/10/04 13:11:04;;;;;;;1.83;1.13;;;14.80;99.90;;;;;;4989513;28;20450;-49
2022/10/04 13:13:59;;;;;;;1.87;1.27;;;15.00;99.90;;;;;;4988636;28;20985;-49
2022/10/04 13:16:42;;;;;;;1.30;1.10;;;15.30;99.90;;;;;;4989245;28;20547;-49
2022/10/04 13:19:18;;;;;;;2.13;1.20;;;15.20;99.90;;;;;;4988248;28;20440;-50
2022/10/04 13:22:09;;;;;;;2.57;1.60;;;15.10;99.90;;;;;;4989030;28;20700;-49
2022/10/04 13:24:54;;;;;;;2.30;1.53;;;15.00;99.90;;;;;;4988848;28;20455;-50
2022/10/04 13:27:30;;;;;;;3.03;1.27;;;15.00;99.90;;;;;;4989001;28;20444;-50
2022/10/04 13:30:05;;;;;;;1.53;1.10;;;15.10;99.90;;;;;;4989062;28;20446;-49
2022/10/04 13:32:42;;;;;;;1.73;1.17;;;15.10;99.90;;;;;;4989078;28;20910;-50
2022/10/04 13:35:18;;;;;;;2.40;1.50;;;15.10;99.90;;;;;;4989218;28;20457;-50
2022/10/04 13:37:55;;;;;;;1.37;1.13;;;15.30;99.90;;;;;;4988912;28;20451;-49
2022/10/04 13:40:32;;;;;;;1.70;1.10;;;15.30;99.90;;;;;;4988655;28;20818;-49
2022/10/04 13:43:30;;;;;;;1.70;1.20;;;15.30;99.90;;;;;;4988854;28;20474;-49
2022/10/04 13:46:11;;;;;;;1.80;1.30;;;15.30;99.90;;;;;;4988846;28;20449;-49
2022/10/04 13:48:49;;;;;;;1.53;1.30;;;15.20;99.90;;;;;;4989174;28;20451;-49
2022/10/04 13:51:43;;;;;;;3.10;1.33;;;15.30;99.90;;;;;;4989012;28;20440;-50
2022/10/04 13:57:22;;;;;;;1.47;1.20;;;15.30;99.90;;;;;;5031687;28;20566;-47
2022/10/04 13:59:55;;;;;;;1.60;1.13;;;15.30;99.90;;;;;;5031912;28;20445;-47
2022/10/04 14:02:42;;;;;;;1.77;1.27;;;15.20;99.90;;;;;;5031582;28;20846;-47
2022/10/04 14:05:57;;;;;;;2.43;1.67;;;15.20;99.90;;;;;;5011651;28;20446;-47
2022/10/04 14:09:00;;;;;;;1.77;1.37;;;15.10;99.90;;;;;;5012033;28;20821;-47
2022/10/04 14:11:51;;;;;;;2.63;1.40;;;15.10;99.90;;;;;;5017919;28;20946;-47
2022/10/04 14:15:03;;;;;;;2.13;1.50;;;15.00;99.90;;;;;;5011578;28;20513;-47
2022/10/04 14:18:03;;;;;;;2.50;1.60;;;15.00;99.90;;;;;;5019419;28;20458;-48
2022/10/04 14:21:15;;;;;;;3.13;1.50;;;15.00;99.90;;;;;;5011539;28;20449;-47